Time;durP1;ratioP1;P1;durP2;ratioP2;P2;SDS_P1;SDS_P2;PMS_P1;PMS_P2;Temp;Humidity;BMP_temperature;BMP_pressure;BME280_temperature;BME280_humidity;BME280_pressure;Samples;Min_cycle;Max_cycle;Signal;HPM_P1;HPM_P2
2021/06/19 00:00:11;;;;;;;22.50;19.33;;;;;;;;;;5035511;28;20417;-93
2021/06/19 00:02:39;;;;;;;24.63;20.98;;;;;;;;;;5039958;28;20427;-92
2021/06/19 00:05:09;;;;;;;25.13;21.00;;;;;;;;;;5037040;28;20403;-92
2021/06/19 00:07:36;;;;;;;23.60;21.08;;;;;;;;;;5036447;28;20412;-92
2021/06/19 00:10:05;;;;;;;24.08;20.25;;;;;;;;;;5039745;28;20484;-92
2021/06/19 00:12:34;;;;;;;25.67;21.23;;;;;;;;;;5041188;28;20419;-92
2021/06/19 00:15:01;;;;;;;25.17;22.05;;;;;;;;;;5040062;28;21041;-91
2021/06/19 00:17:28;;;;;;;27.60;24.52;;;;;;;;;;5038479;28;20887;-92
2021/06/19 00:19:55;;;;;;;29.27;24.73;;;;;;;;;;5033493;28;20414;-92
2021/06/19 00:22:24;;;;;;;27.98;24.95;;;;;;;;;;5039480;28;20431;-93
2021/06/19 00:24:51;;;;;;;29.98;25.60;;;;;;;;;;5033716;28;20407;-91
2021/06/19 00:27:18;;;;;;;31.02;25.90;;;;;;;;;;5039989;28;20422;-92
2021/06/19 00:29:45;;;;;;;31.30;26.05;;;;;;;;;;5035439;28;20399;-92
2021/06/19 00:32:12;;;;;;;28.48;25.45;;;;;;;;;;5039146;28;20490;-90
2021/06/19 00:34:39;;;;;;;31.10;25.90;;;;;;;;;;5036184;28;20946;-92
2021/06/19 00:37:06;;;;;;;28.67;24.92;;;;;;;;;;5035822;28;20435;-92
2021/06/19 00:39:35;;;;;;;28.25;25.25;;;;;;;;;;5039178;28;20435;-92
2021/06/19 00:42:03;;;;;;;28.98;25.15;;;;;;;;;;5038373;28;20950;-92
2021/06/19 00:44:30;;;;;;;28.90;25.92;;;;;;;;;;5039897;28;20401;-90
2021/06/19 00:46:58;;;;;;;29.52;26.40;;;;;;;;;;5038142;28;20430;-93
2021/06/19 00:49:26;;;;;;;28.92;25.77;;;;;;;;;;5042830;28;20442;-93
2021/06/19 00:51:53;;;;;;;30.65;26.67;;;;;;;;;;5037777;28;20435;-92
2021/06/19 00:54:20;;;;;;;31.93;27.60;;;;;;;;;;5038189;28;20402;-91
2021/06/19 00:56:49;;;;;;;31.77;27.20;;;;;;;;;;5036149;28;20413;-92
2021/06/19 00:59:17;;;;;;;30.97;26.73;;;;;;;;;;5035262;28;20417;-92
2021/06/19 01:01:44;;;;;;;31.67;27.87;;;;;;;;;;5040162;28;20410;-93
2021/06/19 01:04:11;;;;;;;32.33;27.42;;;;;;;;;;5040825;28;20411;-92
2021/06/19 01:06:38;;;;;;;30.60;27.30;;;;;;;;;;5038354;28;20405;-92
2021/06/19 01:09:07;;;;;;;31.00;26.13;;;;;;;;;;5038277;28;20828;-91
2021/06/19 01:11:35;;;;;;;29.92;26.70;;;;;;;;;;5035690;28;20405;-92
2021/06/19 01:14:05;;;;;;;29.33;26.20;;;;;;;;;;5036430;28;20438;-92
2021/06/19 01:16:33;;;;;;;29.30;25.70;;;;;;;;;;5034866;28;20437;-93
2021/06/19 01:19:01;;;;;;;29.42;26.10;;;;;;;;;;5041339;28;20953;-91
2021/06/19 01:21:30;;;;;;;29.55;26.30;;;;;;;;;;5033075;28;20409;-92
2021/06/19 01:23:58;;;;;;;29.23;26.00;;;;;;;;;;5037314;28;20412;-93
2021/06/19 01:26:29;;;;;;;29.40;25.73;;;;;;;;;;5034774;28;20412;-93
2021/06/19 01:28:58;;;;;;;28.48;25.42;;;;;;;;;;5033440;28;21052;-93
2021/06/19 01:31:27;;;;;;;29.42;25.27;;;;;;;;;;5038428;28;20412;-94
2021/06/19 01:33:54;;;;;;;29.10;25.90;;;;;;;;;;5033888;28;20921;-91
2021/06/19 01:36:23;;;;;;;32.00;26.90;;;;;;;;;;5039004;28;20412;-92
2021/06/19 01:38:53;;;;;;;30.35;27.13;;;;;;;;;;5042200;28;20417;-93
2021/06/19 01:41:22;;;;;;;30.05;26.45;;;;;;;;;;5036544;28;20398;-93
2021/06/19 01:43:59;;;;;;;29.48;26.33;;;;;;;;;;5045778;28;20902;-94
2021/06/19 01:46:26;;;;;;;29.05;25.95;;;;;;;;;;5045193;28;20431;-93
2021/06/19 01:48:53;;;;;;;30.40;25.77;;;;;;;;;;5045603;28;20435;-92
2021/06/19 01:51:20;;;;;;;29.58;26.50;;;;;;;;;;5041641;28;20805;-92
2021/06/19 01:53:48;;;;;;;29.90;26.00;;;;;;;;;;5042040;28;20393;-92
2021/06/19 01:56:15;;;;;;;29.35;25.30;;;;;;;;;;5041059;28;20408;-92
2021/06/19 01:58:43;;;;;;;28.77;25.52;;;;;;;;;;5046698;28;20908;-92
2021/06/19 02:01:14;;;;;;;28.98;26.02;;;;;;;;;;5042869;28;20488;-93
2021/06/19 02:03:42;;;;;;;29.83;26.20;;;;;;;;;;5038864;28;20552;-92
2021/06/19 02:06:10;;;;;;;29.67;26.53;;;;;;;;;;5044290;28;20774;-93
2021/06/19 02:08:38;;;;;;;28.95;25.85;;;;;;;;;;5046971;28;20819;-91
2021/06/19 02:11:06;;;;;;;29.33;26.42;;;;;;;;;;5043822;28;20406;-93
2021/06/19 02:13:35;;;;;;;30.45;27.23;;;;;;;;;;5039369;28;20418;-91
2021/06/19 02:16:02;;;;;;;30.08;26.77;;;;;;;;;;5048869;28;20481;-93
2021/06/19 02:18:30;;;;;;;30.33;27.23;;;;;;;;;;5048019;28;20412;-92
2021/06/19 02:20:57;;;;;;;29.95;26.95;;;;;;;;;;5033741;28;20414;-93
2021/06/19 02:23:26;;;;;;;30.05;26.85;;;;;;;;;;5047881;28;20924;-92
2021/06/19 02:25:53;;;;;;;30.10;26.80;;;;;;;;;;5048398;28;20479;-91
2021/06/19 02:28:26;;;;;;;29.45;26.55;;;;;;;;;;5035423;28;20416;-90
2021/06/19 02:30:57;;;;;;;30.00;27.00;;;;;;;;;;5043772;28;20504;-92
2021/06/19 02:33:24;;;;;;;30.67;27.58;;;;;;;;;;5046488;28;20439;-92
2021/06/19 02:35:53;;;;;;;29.42;26.63;;;;;;;;;;5046226;28;20416;-92
2021/06/19 02:38:22;;;;;;;30.58;26.80;;;;;;;;;;5045580;28;20412;-92
2021/06/19 02:40:50;;;;;;;31.00;27.77;;;;;;;;;;5042163;28;20403;-92
2021/06/19 02:43:18;;;;;;;30.90;27.05;;;;;;;;;;5042456;28;20538;-92
2021/06/19 02:45:46;;;;;;;29.00;26.10;;;;;;;;;;5043717;28;20407;-91
2021/06/19 02:48:13;;;;;;;28.90;25.77;;;;;;;;;;5041751;28;20400;-92
2021/06/19 02:50:42;;;;;;;29.27;26.13;;;;;;;;;;5042814;28;20412;-92
2021/06/19 02:53:12;;;;;;;30.17;26.27;;;;;;;;;;5045597;28;20399;-92
2021/06/19 02:55:41;;;;;;;27.53;24.70;;;;;;;;;;5044906;28;20911;-91
2021/06/19 02:58:09;;;;;;;27.07;24.27;;;;;;;;;;5044801;28;20414;-92
2021/06/19 03:00:37;;;;;;;28.45;25.25;;;;;;;;;;5043985;28;20418;-92
2021/06/19 03:03:04;;;;;;;26.95;24.17;;;;;;;;;;5044781;28;20491;-93
2021/06/19 03:05:33;;;;;;;27.20;24.30;;;;;;;;;;5040316;28;20426;-91
2021/06/19 03:08:00;;;;;;;27.23;24.38;;;;;;;;;;5041369;28;20413;-92
2021/06/19 03:10:30;;;;;;;28.70;25.27;;;;;;;;;;5044127;28;20766;-92
2021/06/19 03:12:57;;;;;;;27.58;24.85;;;;;;;;;;5045103;28;20443;-92
2021/06/19 03:15:25;;;;;;;28.17;25.15;;;;;;;;;;5044088;28;20418;-92
2021/06/19 03:17:52;;;;;;;27.15;24.30;;;;;;;;;;5038508;28;20504;-92
2021/06/19 03:20:20;;;;;;;29.02;24.65;;;;;;;;;;5041929;28;20516;-92
2021/06/19 03:22:49;;;;;;;27.10;24.40;;;;;;;;;;5043837;28;20403;-92
2021/06/19 03:25:18;;;;;;;27.40;24.58;;;;;;;;;;5044393;28;20412;-92
2021/06/19 03:27:47;;;;;;;28.23;24.80;;;;;;;;;;5038867;28;20894;-91
2021/06/19 03:30:15;;;;;;;27.55;24.83;;;;;;;;;;5041402;28;20408;-91
2021/06/19 03:32:42;;;;;;;27.27;24.38;;;;;;;;;;5044050;28;20408;-91
2021/06/19 03:35:11;;;;;;;28.50;25.70;;;;;;;;;;5039570;28;20456;-91
2021/06/19 03:37:38;;;;;;;27.75;25.00;;;;;;;;;;5043571;28;20405;-91
2021/06/19 03:40:07;;;;;;;27.70;24.73;;;;;;;;;;5044071;28;20419;-91
2021/06/19 03:42:34;;;;;;;28.08;25.05;;;;;;;;;;5041303;28;20413;-91
2021/06/19 03:45:03;;;;;;;27.67;24.67;;;;;;;;;;5039320;28;20415;-92
2021/06/19 03:47:30;;;;;;;28.23;25.27;;;;;;;;;;5040185;28;20426;-92
2021/06/19 03:49:57;;;;;;;27.52;24.80;;;;;;;;;;5042362;28;20412;-93
2021/06/19 03:52:27;;;;;;;28.65;25.60;;;;;;;;;;5041800;28;20765;-93
2021/06/19 03:54:54;;;;;;;28.52;25.65;;;;;;;;;;5042359;28;20407;-90
2021/06/19 03:57:25;;;;;;;29.05;26.00;;;;;;;;;;5041128;28;20407;-91
2021/06/19 03:59:53;;;;;;;28.55;25.45;;;;;;;;;;5034991;28;20425;-92
2021/06/19 04:02:22;;;;;;;28.40;25.52;;;;;;;;;;5039913;28;20414;-92
2021/06/19 04:04:50;;;;;;;27.65;24.92;;;;;;;;;;5040131;28;20490;-91
2021/06/19 04:07:17;;;;;;;27.98;25.17;;;;;;;;;;5037415;28;20439;-91
2021/06/19 04:09:45;;;;;;;28.63;25.77;;;;;;;;;;5039114;28;20419;-93
2021/06/19 04:12:13;;;;;;;29.37;26.30;;;;;;;;;;5038230;28;20403;-93
2021/06/19 04:14:40;;;;;;;29.33;26.25;;;;;;;;;;5033773;28;20884;-93
2021/06/19 04:17:08;;;;;;;29.20;26.25;;;;;;;;;;5039266;28;20911;-92
2021/06/19 04:19:37;;;;;;;29.15;26.13;;;;;;;;;;5039216;28;20442;-92
2021/06/19 04:22:05;;;;;;;30.80;26.55;;;;;;;;;;5033511;28;20399;-91
2021/06/19 04:24:32;;;;;;;29.00;26.03;;;;;;;;;;5037934;28;20416;-92
2021/06/19 04:26:59;;;;;;;30.17;26.85;;;;;;;;;;5039042;28;20415;-92
2021/06/19 04:29:28;;;;;;;29.63;26.73;;;;;;;;;;5036323;28;20411;-92
2021/06/19 04:31:56;;;;;;;30.02;27.00;;;;;;;;;;5041994;28;20444;-92
2021/06/19 04:34:23;;;;;;;30.80;27.63;;;;;;;;;;5038165;28;20491;-92
2021/06/19 04:36:51;;;;;;;32.25;28.58;;;;;;;;;;5035843;28;20414;-92
2021/06/19 04:39:19;;;;;;;31.50;28.02;;;;;;;;;;5037313;28;20412;-92
2021/06/19 04:41:51;;;;;;;32.13;28.83;;;;;;;;;;5040881;28;20494;-91
2021/06/19 04:44:26;;;;;;;31.30;27.95;;;;;;;;;;5036037;28;20454;-92
2021/06/19 04:46:53;;;;;;;33.40;28.25;;;;;;;;;;5038209;28;20420;-93
2021/06/19 04:49:21;;;;;;;31.30;28.00;;;;;;;;;;5042131;28;20395;-92
2021/06/19 04:51:48;;;;;;;33.08;27.88;;;;;;;;;;5039957;28;21322;-92
2021/06/19 04:54:17;;;;;;;31.63;27.27;;;;;;;;;;5040452;28;20419;-92
2021/06/19 04:56:44;;;;;;;29.75;26.60;;;;;;;;;;5040657;28;20431;-92
2021/06/19 04:59:11;;;;;;;29.98;26.88;;;;;;;;;;5034956;28;20510;-93
2021/06/19 05:01:39;;;;;;;31.08;27.83;;;;;;;;;;5037357;28;20404;-91
2021/06/19 05:04:06;;;;;;;30.63;27.33;;;;;;;;;;5037201;28;20507;-92
2021/06/19 05:06:35;;;;;;;31.52;28.20;;;;;;;;;;5037117;28;20419;-91
2021/06/19 05:09:02;;;;;;;32.00;28.70;;;;;;;;;;5037062;28;20457;-92
2021/06/19 05:11:31;;;;;;;33.38;28.50;;;;;;;;;;5039390;28;20439;-92
2021/06/19 05:13:58;;;;;;;32.55;28.65;;;;;;;;;;5039789;28;20762;-91
2021/06/19 05:16:25;;;;;;;30.77;27.55;;;;;;;;;;5038027;28;20402;-91
2021/06/19 05:18:52;;;;;;;28.85;25.70;;;;;;;;;;5041610;28;20411;-92
2021/06/19 05:21:19;;;;;;;27.95;24.95;;;;;;;;;;5044675;28;20403;-92
2021/06/19 05:23:46;;;;;;;27.83;24.98;;;;;;;;;;5043775;28;20832;-92
2021/06/19 05:26:13;;;;;;;27.30;24.50;;;;;;;;;;5057701;22;20404;-81
2021/06/19 05:28:42;;;;;;;29.83;26.45;;;;;;;;;;5045634;28;20409;-83
2021/06/19 05:31:09;;;;;;;28.77;25.80;;;;;;;;;;5046127;28;20507;-83
2021/06/19 05:33:36;;;;;;;29.53;26.43;;;;;;;;;;5044262;28;20509;-83
2021/06/19 05:36:03;;;;;;;30.00;26.90;;;;;;;;;;5047119;28;20491;-83
2021/06/19 05:38:30;;;;;;;31.55;28.17;;;;;;;;;;5044643;28;20735;-83
2021/06/19 05:40:57;;;;;;;30.10;26.95;;;;;;;;;;5050286;28;20433;-83
2021/06/19 05:43:24;;;;;;;29.63;26.55;;;;;;;;;;5045888;28;20397;-83
2021/06/19 05:45:52;;;;;;;29.88;26.83;;;;;;;;;;5046555;28;20979;-83
2021/06/19 05:48:19;;;;;;;28.50;25.45;;;;;;;;;;5043777;28;20422;-82
2021/06/19 05:50:46;;;;;;;27.45;24.63;;;;;;;;;;5046406;28;20412;-83
2021/06/19 05:53:13;;;;;;;30.50;25.55;;;;;;;;;;5048527;28;20406;-83
2021/06/19 05:55:40;;;;;;;28.00;24.75;;;;;;;;;;5046389;28;20733;-83
2021/06/19 05:58:08;;;;;;;29.42;24.10;;;;;;;;;;5045091;28;20410;-83
2021/06/19 06:00:35;;;;;;;27.90;24.65;;;;;;;;;;5048953;28;20455;-90
2021/06/19 06:03:04;;;;;;;25.67;22.07;;;;;;;;;;5039206;28;20444;-90
2021/06/19 06:05:31;;;;;;;27.65;23.40;;;;;;;;;;5049035;28;20403;-90
2021/06/19 06:08:00;;;;;;;26.98;23.75;;;;;;;;;;5060663;28;20865;-91
2021/06/19 06:10:27;;;;;;;25.73;22.42;;;;;;;;;;5053015;28;20399;-81
2021/06/19 06:12:54;;;;;;;26.35;23.55;;;;;;;;;;5046951;28;20455;-83
2021/06/19 06:15:21;;;;;;;24.77;22.10;;;;;;;;;;5042234;28;20407;-83
2021/06/19 06:17:48;;;;;;;25.85;23.13;;;;;;;;;;5043523;28;20411;-82
2021/06/19 06:20:17;;;;;;;26.30;22.00;;;;;;;;;;5045110;28;20425;-82
2021/06/19 06:22:44;;;;;;;24.60;21.27;;;;;;;;;;5051590;28;20411;-82
2021/06/19 06:25:12;;;;;;;29.80;22.90;;;;;;;;;;5047332;28;20491;-83
2021/06/19 06:27:40;;;;;;;23.70;20.60;;;;;;;;;;5042664;28;20496;-83
2021/06/19 06:30:08;;;;;;;24.48;20.38;;;;;;;;;;5044840;28;20396;-83
2021/06/19 06:32:36;;;;;;;23.70;19.52;;;;;;;;;;5046046;28;20399;-83
2021/06/19 06:35:04;;;;;;;21.02;18.77;;;;;;;;;;5046342;28;20398;-82
2021/06/19 06:37:33;;;;;;;20.17;17.93;;;;;;;;;;5044019;28;20951;-83
2021/06/19 06:40:01;;;;;;;19.67;16.83;;;;;;;;;;5047880;28;20430;-83
2021/06/19 06:42:28;;;;;;;20.27;18.02;;;;;;;;;;5042761;28;20394;-83
2021/06/19 06:44:55;;;;;;;21.15;17.33;;;;;;;;;;5048174;28;20436;-83
2021/06/19 06:47:21;;;;;;;19.85;17.65;;;;;;;;;;5047317;28;20405;-83
2021/06/19 06:49:49;;;;;;;19.63;16.75;;;;;;;;;;5044159;28;20436;-83
2021/06/19 06:52:16;;;;;;;20.35;18.33;;;;;;;;;;5047548;28;20435;-83
2021/06/19 06:54:45;;;;;;;20.15;18.02;;;;;;;;;;5048212;28;20412;-83
2021/06/19 06:57:12;;;;;;;19.43;17.37;;;;;;;;;;5040185;28;20490;-83
2021/06/19 06:59:39;;;;;;;20.65;18.52;;;;;;;;;;5036754;28;20913;-83
2021/06/19 07:02:06;;;;;;;20.15;18.17;;;;;;;;;;5042486;28;20440;-83
2021/06/19 07:04:33;;;;;;;19.73;17.73;;;;;;;;;;5038292;28;20405;-83
2021/06/19 07:07:00;;;;;;;20.10;17.83;;;;;;;;;;5044489;28;20875;-83
2021/06/19 07:09:27;;;;;;;18.73;16.83;;;;;;;;;;5041926;28;20398;-84
2021/06/19 07:11:55;;;;;;;19.08;17.02;;;;;;;;;;5045295;28;20406;-83
2021/06/19 07:14:22;;;;;;;19.40;17.50;;;;;;;;;;5044090;28;21846;-83
2021/06/19 07:16:49;;;;;;;21.58;19.30;;;;;;;;;;5045979;28;21205;-83
2021/06/19 07:19:16;;;;;;;22.00;19.50;;;;;;;;;;5039970;28;20416;-83
2021/06/19 07:21:43;;;;;;;21.40;19.15;;;;;;;;;;5040392;28;20418;-83
2021/06/19 07:24:10;;;;;;;24.20;20.25;;;;;;;;;;5040932;28;20469;-84
2021/06/19 07:26:37;;;;;;;22.63;20.13;;;;;;;;;;5042174;28;20412;-83
2021/06/19 07:29:05;;;;;;;22.73;19.70;;;;;;;;;;5037261;28;20390;-83
2021/06/19 07:31:32;;;;;;;21.73;18.57;;;;;;;;;;5038261;28;20510;-84
2021/06/19 07:33:59;;;;;;;21.60;19.53;;;;;;;;;;5039766;28;20934;-83
2021/06/19 07:36:26;;;;;;;20.42;18.23;;;;;;;;;;5037942;28;20398;-83
2021/06/19 07:38:53;;;;;;;19.92;17.10;;;;;;;;;;5035126;28;20402;-83
2021/06/19 07:41:20;;;;;;;21.05;18.10;;;;;;;;;;5040920;28;20423;-83
2021/06/19 07:43:47;;;;;;;18.77;16.88;;;;;;;;;;5041087;28;20391;-83
2021/06/19 07:46:15;;;;;;;19.38;17.13;;;;;;;;;;5043706;28;21206;-83
2021/06/19 07:48:42;;;;;;;19.30;17.20;;;;;;;;;;5039010;28;20670;-83
2021/06/19 07:51:09;;;;;;;18.60;16.73;;;;;;;;;;5042165;28;20399;-83
2021/06/19 07:53:36;;;;;;;18.60;16.33;;;;;;;;;;5038168;28;20409;-83
2021/06/19 07:56:03;;;;;;;17.30;15.48;;;;;;;;;;5037228;28;20400;-83
2021/06/19 07:58:30;;;;;;;16.48;14.57;;;;;;;;;;5042483;28;20489;-83
2021/06/19 08:00:57;;;;;;;15.07;13.35;;;;;;;;;;5041809;28;20785;-84
2021/06/19 08:03:26;;;;;;;15.02;13.52;;;;;;;;;;5044035;28;20433;-83
2021/06/19 08:05:52;;;;;;;15.70;14.07;;;;;;;;;;5035283;28;20452;-84
2021/06/19 08:08:19;;;;;;;17.05;12.73;;;;;;;;;;5043847;28;20411;-81
2021/06/19 08:10:48;;;;;;;14.23;12.82;;;;;;;;;;5039984;28;20414;-82
2021/06/19 08:13:15;;;;;;;13.45;12.15;;;;;;;;;;5037992;28;20404;-83
2021/06/19 08:15:42;;;;;;;13.85;12.68;;;;;;;;;;5042233;28;20397;-82
2021/06/19 08:18:09;;;;;;;15.23;13.77;;;;;;;;;;5045964;28;20400;-83
2021/06/19 08:20:38;;;;;;;16.05;14.52;;;;;;;;;;5045951;28;20424;-83
2021/06/19 08:23:05;;;;;;;15.07;13.48;;;;;;;;;;5048325;28;20396;-82
2021/06/19 08:25:32;;;;;;;15.32;13.75;;;;;;;;;;5034488;28;20482;-82
2021/06/19 08:28:00;;;;;;;15.77;14.23;;;;;;;;;;5036458;28;20772;-82
2021/06/19 08:30:27;;;;;;;15.40;13.83;;;;;;;;;;5036819;28;20739;-83
2021/06/19 08:32:54;;;;;;;15.55;14.10;;;;;;;;;;5038106;28;20402;-83
2021/06/19 08:35:21;;;;;;;16.70;14.93;;;;;;;;;;5034237;28;20502;-83
2021/06/19 08:37:49;;;;;;;16.13;13.80;;;;;;;;;;5034686;28;20776;-83
2021/06/19 08:40:16;;;;;;;11.70;10.60;;;;;;;;;;5038847;28;20434;-85
2021/06/19 08:42:43;;;;;;;15.18;13.43;;;;;;;;;;5042764;28;20424;-83
2021/06/19 08:45:11;;;;;;;14.68;13.13;;;;;;;;;;5036846;28;20402;-83
2021/06/19 08:47:38;;;;;;;14.73;13.33;;;;;;;;;;5036869;28;20407;-83
2021/06/19 08:50:08;;;;;;;15.82;14.32;;;;;;;;;;5043425;28;20559;-83
2021/06/19 08:52:36;;;;;;;15.87;14.30;;;;;;;;;;5032921;28;20416;-81
2021/06/19 08:55:06;;;;;;;14.65;13.15;;;;;;;;;;5031953;28;20432;-81
2021/06/19 08:57:33;;;;;;;15.45;13.77;;;;;;;;;;5034213;28;20518;-82
2021/06/19 09:00:00;;;;;;;14.60;13.10;;;;;;;;;;5038767;28;20405;-81
2021/06/19 09:02:27;;;;;;;18.70;14.13;;;;;;;;;;5039939;28;20399;-83
2021/06/19 09:05:04;;;;;;;15.23;13.63;;;;;;;;;;5038328;28;20876;-83
2021/06/19 09:07:42;;;;;;;16.60;14.73;;;;;;;;;;5035225;28;20392;-83
2021/06/19 09:10:22;;;;;;;18.58;15.88;;;;;;;;;;5036554;28;20741;-83
2021/06/19 09:13:04;;;;;;;18.35;16.48;;;;;;;;;;5039530;28;20427;-83
2021/06/19 09:15:33;;;;;;;22.40;20.15;;;;;;;;;;5037655;28;20408;-83
2021/06/19 09:18:13;;;;;;;20.10;17.87;;;;;;;;;;5033953;28;20448;-83
2021/06/19 09:20:47;;;;;;;22.25;19.70;;;;;;;;;;5032917;28;20416;-83
2021/06/19 09:23:14;;;;;;;23.88;19.20;;;;;;;;;;5037983;28;20807;-83
2021/06/19 09:25:43;;;;;;;17.45;15.75;;;;;;;;;;5038112;28;20391;-83
2021/06/19 09:28:11;;;;;;;17.92;16.02;;;;;;;;;;5036074;28;20790;-83
2021/06/19 09:30:40;;;;;;;18.30;16.40;;;;;;;;;;5041168;28;20412;-83
2021/06/19 09:33:10;;;;;;;17.30;15.52;;;;;;;;;;5040777;28;20396;-83
2021/06/19 09:35:38;;;;;;;18.52;16.63;;;;;;;;;;5037834;28;20406;-83
2021/06/19 09:38:08;;;;;;;18.50;16.60;;;;;;;;;;5039387;28;20418;-83
2021/06/19 09:40:37;;;;;;;21.77;19.52;;;;;;;;;;5039614;28;20416;-83
2021/06/19 09:43:11;;;;;;;22.02;19.73;;;;;;;;;;5041342;28;21237;-84
2021/06/19 09:45:40;;;;;;;18.02;16.13;;;;;;;;;;5041582;28;20412;-83
2021/06/19 09:48:23;;;;;;;19.27;17.40;;;;;;;;;;5042032;28;20416;-83
2021/06/19 09:51:15;;;;;;;19.50;17.40;;;;;;;;;;5033908;28;20872;-83
2021/06/19 09:53:43;;;;;;;16.70;14.90;;;;;;;;;;5036985;28;20499;-83
2021/06/19 09:56:12;;;;;;;18.35;15.32;;;;;;;;;;5041723;28;20408;-83
2021/06/19 09:58:42;;;;;;;21.42;19.20;;;;;;;;;;5037401;28;20505;-83
2021/06/19 10:01:10;;;;;;;17.35;15.25;;;;;;;;;;5040324;28;20438;-83
2021/06/19 10:03:57;;;;;;;17.67;16.00;;;;;;;;;;5042573;28;20797;-83
2021/06/19 10:06:25;;;;;;;19.80;17.07;;;;;;;;;;5043683;28;20505;-83
2021/06/19 10:08:54;;;;;;;17.53;15.73;;;;;;;;;;5036742;28;20409;-83
2021/06/19 10:11:23;;;;;;;19.15;17.25;;;;;;;;;;5043857;28;20400;-83
2021/06/19 10:13:52;;;;;;;19.55;17.20;;;;;;;;;;5049723;28;20518;-83
2021/06/19 10:16:19;;;;;;;17.35;15.65;;;;;;;;;;5044856;28;20492;-83
2021/06/19 10:18:47;;;;;;;18.92;16.92;;;;;;;;;;5043017;28;20415;-83
2021/06/19 10:21:15;;;;;;;18.25;16.35;;;;;;;;;;5040414;28;20877;-83
2021/06/19 10:23:43;;;;;;;20.50;14.85;;;;;;;;;;5044504;28;20470;-83
2021/06/19 10:26:10;;;;;;;17.40;15.70;;;;;;;;;;5047019;28;20408;-81
2021/06/19 10:28:42;;;;;;;19.42;17.38;;;;;;;;;;5048871;28;20403;-83
2021/06/19 10:31:11;;;;;;;17.80;15.95;;;;;;;;;;5045726;28;20404;-83
2021/06/19 10:33:38;;;;;;;18.43;15.67;;;;;;;;;;5039454;28;20401;-82
2021/06/19 10:36:08;;;;;;;17.92;16.15;;;;;;;;;;5040988;28;20413;-81
2021/06/19 10:38:50;;;;;;;17.35;15.40;;;;;;;;;;5041997;28;20428;-81
2021/06/19 10:41:19;;;;;;;17.52;15.68;;;;;;;;;;5041612;28;20421;-82
2021/06/19 10:43:47;;;;;;;16.30;14.45;;;;;;;;;;5039479;28;20410;-82
2021/06/19 10:46:34;;;;;;;16.13;14.52;;;;;;;;;;5040012;28;20488;-82
2021/06/19 10:49:06;;;;;;;20.85;16.48;;;;;;;;;;5039534;28;20419;-83
2021/06/19 10:51:33;;;;;;;18.52;16.58;;;;;;;;;;5039613;28;20413;-83
2021/06/19 10:54:15;;;;;;;18.73;15.70;;;;;;;;;;5038740;28;20398;-83
2021/06/19 10:56:53;;;;;;;17.65;15.70;;;;;;;;;;5042362;28;20483;-83
2021/06/19 10:59:22;;;;;;;17.77;15.63;;;;;;;;;;5039451;28;20408;-82
2021/06/19 11:01:52;;;;;;;17.05;15.35;;;;;;;;;;5040797;28;20479;-82
2021/06/19 11:04:44;;;;;;;17.75;15.60;;;;;;;;;;5036724;28;20403;-82
2021/06/19 11:07:50;;;;;;;15.48;13.98;;;;;;;;;;5035841;28;20460;-82
2021/06/19 11:10:49;;;;;;;15.05;13.23;;;;;;;;;;5038199;28;20435;-82
2021/06/19 11:13:44;;;;;;;16.87;15.17;;;;;;;;;;5040497;28;20439;-82
2021/06/19 11:16:46;;;;;;;16.27;14.03;;;;;;;;;;5031230;28;20410;-81
2021/06/19 11:19:36;;;;;;;16.45;14.77;;;;;;;;;;5034052;28;20418;-82
2021/06/19 11:22:29;;;;;;;16.50;14.73;;;;;;;;;;5035093;28;20475;-82
2021/06/19 11:25:16;;;;;;;16.13;13.23;;;;;;;;;;5030037;28;20436;-82
2021/06/19 11:27:57;;;;;;;14.10;12.70;;;;;;;;;;5035992;28;20407;-82
2021/06/19 11:30:46;;;;;;;16.25;13.00;;;;;;;;;;5029669;28;20398;-82
2021/06/19 11:33:44;;;;;;;15.30;13.60;;;;;;;;;;5022092;28;20425;-81
2021/06/19 11:36:35;;;;;;;13.98;12.55;;;;;;;;;;5030238;28;20401;-82
2021/06/19 11:39:10;;;;;;;16.73;15.07;;;;;;;;;;5029487;28;20406;-81
2021/06/19 11:41:40;;;;;;;16.17;14.47;;;;;;;;;;5028923;28;21166;-81
2021/06/19 11:44:34;;;;;;;14.68;12.95;;;;;;;;;;5027653;28;20405;-82
2021/06/19 11:47:08;;;;;;;15.07;12.60;;;;;;;;;;5035562;28;20410;-81
2021/06/19 11:49:40;;;;;;;14.32;12.82;;;;;;;;;;5033360;28;20409;-81
2021/06/19 11:52:12;;;;;;;13.50;12.15;;;;;;;;;;5036972;28;20411;-81
2021/06/19 11:54:43;;;;;;;13.43;12.13;;;;;;;;;;5049481;28;20406;-80
2021/06/19 11:57:12;;;;;;;13.32;11.93;;;;;;;;;;5047311;28;20502;-81
2021/06/19 11:59:39;;;;;;;14.20;12.80;;;;;;;;;;5040015;28;20926;-80
2021/06/19 12:02:14;;;;;;;14.65;13.15;;;;;;;;;;5043695;28;20426;-80
2021/06/19 12:04:41;;;;;;;14.82;13.30;;;;;;;;;;5042558;28;20408;-80
2021/06/19 12:07:09;;;;;;;17.00;14.32;;;;;;;;;;5045241;28;20394;-81
2021/06/19 12:09:37;;;;;;;15.73;13.80;;;;;;;;;;5037412;28;20909;-83
2021/06/19 12:12:06;;;;;;;15.75;14.05;;;;;;;;;;5037065;28;20487;-81
2021/06/19 12:14:35;;;;;;;17.10;13.80;;;;;;;;;;5035839;28;20933;-82
2021/06/19 12:17:05;;;;;;;16.30;14.40;;;;;;;;;;5032003;28;20403;-82
2021/06/19 12:19:34;;;;;;;15.23;13.57;;;;;;;;;;5031186;28;20897;-82
2021/06/19 12:22:04;;;;;;;15.85;13.70;;;;;;;;;;5028705;28;20424;-81
2021/06/19 12:24:34;;;;;;;15.33;12.40;;;;;;;;;;5028561;28;20413;-81
2021/06/19 12:27:14;;;;;;;16.95;13.52;;;;;;;;;;5027148;28;20437;-81
2021/06/19 12:29:47;;;;;;;14.93;13.27;;;;;;;;;;5029996;28;20423;-80
2021/06/19 12:32:23;;;;;;;16.20;13.83;;;;;;;;;;5027311;28;20406;-80
2021/06/19 12:34:52;;;;;;;15.07;13.47;;;;;;;;;;5028885;28;20417;-79
2021/06/19 12:37:23;;;;;;;15.23;13.27;;;;;;;;;;5030336;28;20418;-80
2021/06/19 12:39:52;;;;;;;17.63;15.53;;;;;;;;;;5034678;28;20820;-79
2021/06/19 12:42:37;;;;;;;16.10;14.18;;;;;;;;;;5031795;28;20855;-80
2021/06/19 12:45:06;;;;;;;18.70;16.80;;;;;;;;;;5034088;28;20429;-80
2021/06/19 12:47:37;;;;;;;18.60;15.50;;;;;;;;;;5027833;28;20758;-79
2021/06/19 12:50:04;;;;;;;15.38;13.98;;;;;;;;;;5029698;28;20693;-80
2021/06/19 12:52:31;;;;;;;16.13;14.50;;;;;;;;;;5031518;28;20417;-79
2021/06/19 12:55:17;;;;;;;16.38;14.68;;;;;;;;;;5031586;28;20398;-79
2021/06/19 12:57:44;;;;;;;16.13;14.43;;;;;;;;;;5036837;28;20395;-80
2021/06/19 13:00:12;;;;;;;16.55;14.98;;;;;;;;;;5041044;28;20751;-80
2021/06/19 13:02:55;;;;;;;19.15;15.48;;;;;;;;;;5038961;28;20423;-82
2021/06/19 13:05:23;;;;;;;18.70;15.48;;;;;;;;;;5035195;28;20946;-80
2021/06/19 13:07:50;;;;;;;15.18;13.02;;;;;;;;;;5043241;28;20709;-80
2021/06/19 13:10:31;;;;;;;15.32;13.85;;;;;;;;;;5043327;28;20395;-81
2021/06/19 13:12:58;;;;;;;17.88;15.98;;;;;;;;;;5044580;28;20412;-80
2021/06/19 13:15:27;;;;;;;15.27;13.68;;;;;;;;;;5031731;28;20453;-80
2021/06/19 13:17:55;;;;;;;16.48;14.73;;;;;;;;;;5040621;28;20405;-81
2021/06/19 13:20:31;;;;;;;16.67;14.47;;;;;;;;;;5044306;28;20438;-79
2021/06/19 13:23:06;;;;;;;19.98;15.38;;;;;;;;;;5042722;28;20414;-79
2021/06/19 13:26:00;;;;;;;15.10;13.43;;;;;;;;;;5044586;28;20407;-79
2021/06/19 13:28:46;;;;;;;15.85;13.75;;;;;;;;;;5019196;28;20804;-82
2021/06/19 13:31:15;;;;;;;15.43;13.57;;;;;;;;;;5039828;28;20923;-81
2021/06/19 13:33:45;;;;;;;16.13;14.25;;;;;;;;;;5031551;28;20413;-82
2021/06/19 13:36:24;;;;;;;16.77;13.80;;;;;;;;;;5032151;28;20414;-82
2021/06/19 13:38:53;;;;;;;15.45;13.30;;;;;;;;;;5029818;28;20431;-81
2021/06/19 13:41:23;;;;;;;17.20;13.07;;;;;;;;;;5035539;28;20415;-82
2021/06/19 13:43:50;;;;;;;15.25;13.68;;;;;;;;;;5043879;28;20409;-80
2021/06/19 13:46:17;;;;;;;16.00;13.68;;;;;;;;;;5037924;28;20410;-84
2021/06/19 13:48:44;;;;;;;16.97;13.93;;;;;;;;;;5037674;28;20406;-82
2021/06/19 13:51:12;;;;;;;14.27;12.88;;;;;;;;;;5044180;28;20473;-77
2021/06/19 13:53:43;;;;;;;15.90;13.45;;;;;;;;;;5046569;28;20400;-79
2021/06/19 13:56:10;;;;;;;15.52;13.27;;;;;;;;;;5044930;28;20465;-80
2021/06/19 13:58:38;;;;;;;16.55;12.68;;;;;;;;;;5036889;28;20399;-80
2021/06/19 14:01:06;;;;;;;15.30;12.57;;;;;;;;;;5049119;28;20402;-79
2021/06/19 14:03:33;;;;;;;15.18;13.68;;;;;;;;;;5041920;28;20429;-79
2021/06/19 14:06:00;;;;;;;14.75;12.90;;;;;;;;;;5043409;28;21247;-79
2021/06/19 14:08:27;;;;;;;14.30;12.80;;;;;;;;;;5046580;28;20397;-79
2021/06/19 14:10:54;;;;;;;14.18;12.63;;;;;;;;;;5037928;28;21253;-82
2021/06/19 14:13:21;;;;;;;14.50;13.00;;;;;;;;;;5047629;28;20772;-79
2021/06/19 14:15:49;;;;;;;15.65;13.73;;;;;;;;;;5040216;28;20761;-79
2021/06/19 14:18:16;;;;;;;15.13;13.47;;;;;;;;;;5044575;28;20410;-79
2021/06/19 14:20:43;;;;;;;15.63;13.00;;;;;;;;;;5045722;28;20900;-80
2021/06/19 14:23:10;;;;;;;14.63;13.20;;;;;;;;;;5039768;28;20428;-80
2021/06/19 14:25:37;;;;;;;15.18;12.80;;;;;;;;;;5040577;28;20451;-79
2021/06/19 14:28:07;;;;;;;16.17;13.77;;;;;;;;;;5044588;28;20405;-80
2021/06/19 14:30:34;;;;;;;16.52;14.57;;;;;;;;;;5041200;28;20461;-79